Time;durP1;ratioP1;P1;durP2;ratioP2;P2;SDS_P1;SDS_P2;PMS_P1;PMS_P2;Temp;Humidity;BMP_temperature;BMP_pressure;BME280_temperature;BME280_humidity;BME280_pressure;Samples;Min_cycle;Max_cycle;Signal;HPM_P1;HPM_P2
2022/03/08 00:02:07;;;;;;;19.70;14.80;;;0.30;76.10;;;;;;5030014;28;20571;-84
2022/03/08 00:04:33;;;;;;;21.25;15.20;;;0.60;76.30;;;;;;5021985;28;20182;-84
2022/03/08 00:07:00;;;;;;;19.83;14.13;;;0.90;76.50;;;;;;5028355;28;20657;-84
2022/03/08 00:09:26;;;;;;;18.20;13.18;;;0.40;76.30;;;;;;5044089;28;20444;-84
2022/03/08 00:11:52;;;;;;;17.70;13.30;;;0.50;76.70;;;;;;5042161;28;20349;-84
2022/03/08 00:14:17;;;;;;;24.27;16.13;;;0.80;76.80;;;;;;5035533;28;20537;-83
2022/03/08 00:16:43;;;;;;;18.73;14.30;;;0.20;76.50;;;;;;5034377;28;20192;-84
2022/03/08 00:19:09;;;;;;;21.63;14.63;;;0.80;78.30;;;;;;5030287;28;20211;-84
2022/03/08 00:21:34;;;;;;;21.67;14.40;;;0.40;79.00;;;;;;5032064;28;20208;-83
2022/03/08 00:24:00;;;;;;;18.67;14.50;;;0.10;78.70;;;;;;5026018;28;20189;-84
2022/03/08 00:26:25;;;;;;;18.87;13.97;;;0.50;78.50;;;;;;5033134;28;20626;-84
2022/03/08 00:28:51;;;;;;;21.80;14.90;;;-0.20;77.90;;;;;;5027708;28;20209;-85
2022/03/08 00:31:16;;;;;;;23.43;14.33;;;0.00;78.70;;;;;;5031031;28;20309;-83
2022/03/08 00:33:42;;;;;;;21.70;16.57;;;0.00;79.40;;;;;;5029306;28;20191;-83
2022/03/08 00:36:09;;;;;;;20.53;14.20;;;-0.10;80.10;;;;;;5020678;28;20200;-84
2022/03/08 00:38:34;;;;;;;22.40;15.25;;;-0.20;80.80;;;;;;5028650;28;20186;-83
2022/03/08 00:41:00;;;;;;;19.57;14.13;;;0.00;80.40;;;;;;5029143;28;20584;-84
2022/03/08 00:43:26;;;;;;;18.75;14.25;;;-0.70;80.30;;;;;;5036884;28;20181;-83
2022/03/08 00:45:52;;;;;;;20.93;14.70;;;0.10;80.80;;;;;;5042633;28;20268;-84
2022/03/08 00:48:18;;;;;;;20.40;14.85;;;0.10;80.60;;;;;;5047755;28;20178;-84
2022/03/08 00:50:44;;;;;;;19.97;14.50;;;0.00;79.50;;;;;;5044007;28;20788;-84
2022/03/08 00:53:09;;;;;;;22.27;14.87;;;0.00;79.60;;;;;;5031733;28;20264;-83
2022/03/08 00:55:35;;;;;;;19.47;13.33;;;0.40;80.60;;;;;;5039424;28;20182;-84
2022/03/08 00:58:02;;;;;;;21.00;14.70;;;-0.20;80.10;;;;;;5039213;28;20668;-84
2022/03/08 01:00:29;;;;;;;17.85;14.27;;;0.30;81.40;;;;;;5031666;28;20488;-84
2022/03/08 01:02:55;;;;;;;18.92;13.45;;;-0.70;80.50;;;;;;5030829;28;20208;-84
2022/03/08 01:05:21;;;;;;;19.93;14.37;;;0.30;81.70;;;;;;5038590;28;20174;-83
2022/03/08 01:07:47;;;;;;;18.90;14.40;;;-0.80;80.60;;;;;;5027249;28;20189;-83
2022/03/08 01:10:17;;;;;;;21.92;14.93;;;0.20;81.80;;;;;;5046785;28;20568;-84
2022/03/08 01:12:44;;;;;;;18.90;13.23;;;-0.80;80.10;;;;;;5025332;28;20214;-84
2022/03/08 01:15:11;;;;;;;23.92;15.00;;;0.00;81.00;;;;;;5026231;28;20653;-84
2022/03/08 01:17:37;;;;;;;20.38;14.73;;;0.00;81.20;;;;;;5030872;28;20190;-86
2022/03/08 01:20:06;;;;;;;19.13;13.57;;;-0.10;82.30;;;;;;5026874;28;20292;-84
2022/03/08 01:22:31;;;;;;;16.33;13.02;;;0.00;83.50;;;;;;5027297;28;20210;-83
2022/03/08 01:24:57;;;;;;;20.23;14.00;;;-0.70;82.50;;;;;;5036673;28;20197;-83
2022/03/08 01:27:22;;;;;;;18.40;13.57;;;-0.10;82.80;;;;;;5024691;28;20257;-83
2022/03/08 01:29:48;;;;;;;19.40;14.73;;;-0.30;83.30;;;;;;5030166;28;20186;-84
2022/03/08 01:32:13;;;;;;;19.87;12.50;;;0.20;83.90;;;;;;5031879;28;20202;-83
2022/03/08 01:34:39;;;;;;;22.43;15.03;;;-0.70;83.00;;;;;;5029926;28;20612;-83
2022/03/08 01:37:04;;;;;;;18.43;12.90;;;-1.00;82.10;;;;;;5026341;28;20204;-84
2022/03/08 01:39:30;;;;;;;20.70;14.30;;;-0.60;83.50;;;;;;5049346;28;20236;-84
2022/03/08 01:41:56;;;;;;;18.23;12.97;;;-0.40;84.20;;;;;;5030700;28;20404;-84
2022/03/08 01:44:22;;;;;;;20.07;14.07;;;-0.30;83.40;;;;;;5035191;28;20460;-84
2022/03/08 01:46:47;;;;;;;18.63;12.97;;;-0.20;83.30;;;;;;5026888;28;20189;-83
2022/03/08 01:49:13;;;;;;;17.23;13.23;;;0.00;83.80;;;;;;5036750;28;20516;-84
2022/03/08 01:51:39;;;;;;;18.77;13.00;;;-0.10;83.70;;;;;;5033046;28;20203;-83
2022/03/08 01:54:06;;;;;;;15.80;13.13;;;-1.00;82.70;;;;;;5025591;28;20178;-83
2022/03/08 01:56:33;;;;;;;17.75;13.10;;;-1.00;83.40;;;;;;5024815;28;20657;-83
2022/03/08 01:58:59;;;;;;;19.15;14.25;;;-0.20;84.40;;;;;;5031868;28;20288;-83
2022/03/08 02:01:25;;;;;;;22.85;14.40;;;-0.50;84.90;;;;;;5014746;28;20209;-84
2022/03/08 02:03:51;;;;;;;18.40;13.13;;;-0.60;86.20;;;;;;5033332;28;20182;-84
2022/03/08 02:06:17;;;;;;;17.93;13.23;;;-0.70;85.90;;;;;;5028897;28;20273;-83
2022/03/08 02:08:42;;;;;;;19.90;14.53;;;-0.50;86.40;;;;;;5026748;28;21756;-83
2022/03/08 02:11:08;;;;;;;19.20;14.17;;;-0.80;85.90;;;;;;5048119;28;20240;-84
2022/03/08 02:13:33;;;;;;;21.57;13.23;;;-0.50;85.90;;;;;;5028497;28;20205;-84
2022/03/08 02:15:59;;;;;;;18.00;13.90;;;-0.20;85.80;;;;;;5035850;28;20226;-83
2022/03/08 02:18:24;;;;;;;16.30;13.10;;;-0.40;85.80;;;;;;5022661;28;20203;-83
2022/03/08 02:20:50;;;;;;;19.40;13.43;;;-0.10;86.90;;;;;;5027941;28;20186;-83
2022/03/08 02:23:16;;;;;;;21.87;13.47;;;-0.50;86.70;;;;;;5046898;28;20185;-82
2022/03/08 02:25:42;;;;;;;20.97;14.10;;;-0.60;86.30;;;;;;5041437;28;20436;-84
2022/03/08 02:28:08;;;;;;;18.73;13.48;;;-0.30;86.30;;;;;;5034498;28;20450;-83
2022/03/08 02:30:34;;;;;;;17.50;13.00;;;-0.80;85.90;;;;;;5048332;28;20186;-84
2022/03/08 02:32:59;;;;;;;20.27;13.67;;;-0.60;86.10;;;;;;5049482;28;20458;-84
2022/03/08 02:35:27;;;;;;;18.20;13.23;;;-0.40;87.20;;;;;;5043602;28;20437;-83
2022/03/08 02:37:55;;;;;;;17.02;12.75;;;-0.60;87.20;;;;;;5043658;28;20186;-84
2022/03/08 02:40:29;;;;;;;20.35;12.77;;;-0.80;87.40;;;;;;5026690;28;20312;-85
2022/03/08 02:42:55;;;;;;;22.73;12.73;;;-1.00;88.00;;;;;;5036799;28;20292;-84
2022/03/08 02:45:21;;;;;;;19.03;13.83;;;-1.00;88.30;;;;;;5028233;28;20277;-84
2022/03/08 02:47:47;;;;;;;19.73;14.27;;;-0.70;89.00;;;;;;5046988;28;20209;-82
2022/03/08 02:50:15;;;;;;;26.23;13.47;;;-0.70;89.50;;;;;;5033705;28;20649;-84
2022/03/08 02:52:45;;;;;;;19.23;12.85;;;-0.50;90.10;;;;;;5040498;28;20202;-84
2022/03/08 02:55:12;;;;;;;19.45;13.32;;;-0.70;89.50;;;;;;5041333;28;20240;-83
2022/03/08 02:57:39;;;;;;;17.33;12.07;;;-0.50;89.20;;;;;;5025721;28;20187;-84
2022/03/08 03:00:07;;;;;;;20.73;13.68;;;-1.00;88.80;;;;;;5036395;28;20202;-84
2022/03/08 03:02:33;;;;;;;23.58;13.77;;;-1.00;89.10;;;;;;5049160;28;20280;-84
2022/03/08 03:04:58;;;;;;;20.90;13.63;;;-1.60;88.80;;;;;;5024920;28;20299;-84
2022/03/08 03:07:24;;;;;;;19.73;13.77;;;-0.50;89.60;;;;;;5027318;28;20181;-84
2022/03/08 03:09:50;;;;;;;19.13;13.30;;;-1.00;89.70;;;;;;5028691;28;20192;-83
2022/03/08 03:12:16;;;;;;;23.23;13.77;;;-1.60;90.10;;;;;;5023456;28;20199;-83
2022/03/08 03:14:41;;;;;;;21.80;14.10;;;-0.90;90.30;;;;;;5018560;28;20572;-84
2022/03/08 03:17:07;;;;;;;18.63;13.20;;;-1.40;90.00;;;;;;5029277;28;20269;-84
2022/03/08 03:19:32;;;;;;;17.13;12.97;;;-1.00;89.60;;;;;;5024032;28;20219;-85
2022/03/08 03:21:58;;;;;;;18.83;12.97;;;-1.00;90.20;;;;;;5028805;28;20196;-84
2022/03/08 03:24:23;;;;;;;19.37;12.77;;;-0.90;90.10;;;;;;5047563;28;20749;-84
2022/03/08 03:26:49;;;;;;;20.00;13.17;;;-0.90;90.30;;;;;;5029051;28;20178;-84
2022/03/08 03:29:15;;;;;;;19.83;12.60;;;-1.00;90.30;;;;;;5043456;28;20679;-84
2022/03/08 03:31:41;;;;;;;18.07;12.77;;;-1.10;90.30;;;;;;5025021;28;20215;-84
2022/03/08 03:34:06;;;;;;;18.03;13.73;;;-1.40;90.10;;;;;;5043267;28;20192;-84
2022/03/08 03:36:32;;;;;;;16.60;12.03;;;-1.40;90.50;;;;;;5039951;28;20264;-84
2022/03/08 03:38:57;;;;;;;18.40;13.30;;;-1.20;90.80;;;;;;5019857;28;20215;-85
2022/03/08 03:41:23;;;;;;;21.43;13.70;;;-1.00;90.70;;;;;;5037670;28;20291;-84
2022/03/08 03:43:48;;;;;;;17.60;12.33;;;-1.10;90.60;;;;;;5030781;28;20637;-84
2022/03/08 03:46:14;;;;;;;18.47;13.53;;;-1.30;90.20;;;;;;5045748;28;20192;-84
2022/03/08 03:48:40;;;;;;;18.63;12.67;;;-0.80;91.00;;;;;;5046063;28;20236;-84
2022/03/08 03:51:06;;;;;;;19.15;14.07;;;-0.90;90.80;;;;;;5042792;28;20196;-83
2022/03/08 03:53:31;;;;;;;18.20;12.93;;;-1.30;90.70;;;;;;5037154;28;20200;-84
2022/03/08 03:55:57;;;;;;;22.23;14.20;;;-1.00;91.00;;;;;;5051750;28;20211;-84
2022/03/08 03:58:22;;;;;;;16.57;12.67;;;-1.10;90.80;;;;;;5032087;28;20287;-84
2022/03/08 04:00:48;;;;;;;18.83;12.30;;;-1.30;90.60;;;;;;5029416;28;20227;-83
2022/03/08 04:03:15;;;;;;;17.27;11.40;;;-1.50;90.80;;;;;;5030980;28;20634;-82
2022/03/08 04:05:40;;;;;;;17.52;12.82;;;-1.30;90.90;;;;;;5038494;28;20276;-85
2022/03/08 04:08:06;;;;;;;17.70;12.83;;;-1.50;90.70;;;;;;5050961;28;20263;-85
2022/03/08 04:10:32;;;;;;;18.58;12.50;;;-1.50;90.90;;;;;;5028098;28;20234;-84
2022/03/08 04:12:58;;;;;;;20.23;13.73;;;-0.90;91.60;;;;;;5024778;28;20231;-82
2022/03/08 04:15:24;;;;;;;17.53;12.83;;;-1.50;91.40;;;;;;5027551;28;20195;-84
2022/03/08 04:17:49;;;;;;;18.60;12.70;;;-1.10;92.00;;;;;;5035004;28;20282;-84
2022/03/08 04:20:15;;;;;;;17.60;12.83;;;-1.40;92.20;;;;;;5027739;28;20211;-84
2022/03/08 04:22:40;;;;;;;19.03;12.70;;;-0.90;92.90;;;;;;5030249;28;20231;-82
2022/03/08 04:25:07;;;;;;;20.67;13.07;;;-1.40;92.80;;;;;;5035450;28;20198;-85
2022/03/08 04:27:33;;;;;;;22.20;13.13;;;-1.30;92.50;;;;;;5024264;28;20184;-85
2022/03/08 04:29:59;;;;;;;19.60;12.90;;;-1.40;91.90;;;;;;5028739;28;20189;-85
2022/03/08 04:32:24;;;;;;;18.35;13.50;;;-1.20;92.30;;;;;;5022745;28;20695;-85
2022/03/08 04:34:50;;;;;;;17.33;13.10;;;-1.60;92.20;;;;;;5030896;28;20197;-85
2022/03/08 04:37:16;;;;;;;17.57;12.50;;;-1.60;92.40;;;;;;5027415;28;20267;-85
2022/03/08 04:39:41;;;;;;;18.57;13.20;;;-1.10;93.00;;;;;;5029262;28;20577;-85
2022/03/08 04:42:07;;;;;;;17.40;12.80;;;-1.20;93.00;;;;;;5025424;28;20525;-85
2022/03/08 04:44:32;;;;;;;21.90;14.83;;;-1.90;92.10;;;;;;5022679;28;20585;-84
2022/03/08 04:46:58;;;;;;;16.70;11.43;;;-1.50;92.90;;;;;;5043507;28;20437;-84
2022/03/08 04:49:25;;;;;;;16.83;12.47;;;-1.70;93.00;;;;;;5033266;28;20195;-86
2022/03/08 04:51:50;;;;;;;15.35;11.05;;;-1.10;92.90;;;;;;5032576;28;20219;-86
2022/03/08 04:54:16;;;;;;;19.63;13.17;;;-1.50;93.20;;;;;;5030490;28;20192;-85
2022/03/08 04:56:42;;;;;;;19.53;13.10;;;-1.40;92.70;;;;;;5024318;28;20447;-86
2022/03/08 04:59:07;;;;;;;16.37;11.97;;;-1.30;92.90;;;;;;5016414;28;20206;-86
2022/03/08 05:01:33;;;;;;;19.53;13.80;;;-1.00;93.00;;;;;;5023036;28;20199;-86
2022/03/08 05:03:58;;;;;;;20.33;12.83;;;-1.40;93.20;;;;;;5032373;28;20184;-86
2022/03/08 05:06:26;;;;;;;17.47;13.33;;;-1.60;93.30;;;;;;5030632;28;20188;-86
2022/03/08 05:08:52;;;;;;;17.27;12.30;;;-1.60;92.90;;;;;;5032033;28;20199;-86
2022/03/08 05:11:17;;;;;;;18.07;13.20;;;-1.20;93.30;;;;;;5023975;28;20700;-86
2022/03/08 05:13:43;;;;;;;17.70;13.50;;;-1.70;93.10;;;;;;5020440;28;20562;-86
2022/03/08 05:16:09;;;;;;;18.33;12.27;;;-1.80;92.90;;;;;;5034229;28;20216;-85
2022/03/08 05:18:35;;;;;;;16.10;11.55;;;-1.70;92.80;;;;;;5031685;28;20271;-84
2022/03/08 05:21:00;;;;;;;22.30;15.17;;;-1.40;93.10;;;;;;5026658;28;20617;-87
2022/03/08 05:23:26;;;;;;;15.80;11.73;;;-1.50;93.30;;;;;;5024903;28;20184;-85
2022/03/08 05:25:51;;;;;;;17.50;11.00;;;-1.40;92.80;;;;;;5033273;28;20548;-86
2022/03/08 05:28:17;;;;;;;19.20;12.20;;;-1.40;92.80;;;;;;5029380;28;20562;-86
2022/03/08 05:30:44;;;;;;;18.53;12.70;;;-1.50;93.50;;;;;;5043332;28;20263;-84
2022/03/08 05:33:09;;;;;;;19.75;13.27;;;-1.70;93.70;;;;;;5038419;28;20234;-86
2022/03/08 05:35:35;;;;;;;22.80;13.50;;;-1.70;93.50;;;;;;5021222;28;21008;-85
2022/03/08 05:38:01;;;;;;;18.70;12.13;;;-1.50;93.40;;;;;;5024277;28;20210;-83
2022/03/08 05:40:27;;;;;;;16.42;12.05;;;-1.20;93.60;;;;;;5032280;28;20211;-86
2022/03/08 05:42:52;;;;;;;17.53;12.67;;;-1.50;93.50;;;;;;5029388;28;20342;-86
2022/03/08 05:45:18;;;;;;;18.20;13.27;;;-1.70;93.20;;;;;;5029051;28;20195;-85
2022/03/08 05:47:44;;;;;;;16.53;12.53;;;-2.30;93.00;;;;;;5025816;28;20452;-85
2022/03/08 05:50:10;;;;;;;17.67;12.60;;;-1.60;93.50;;;;;;5033112;28;20189;-86
2022/03/08 05:52:36;;;;;;;18.20;12.80;;;-1.30;93.70;;;;;;5031235;28;20243;-85
2022/03/08 05:55:03;;;;;;;22.77;14.07;;;-1.70;93.40;;;;;;5029248;28;20276;-86
2022/03/08 05:57:28;;;;;;;17.20;13.07;;;-1.20;93.60;;;;;;5044191;28;20192;-86
2022/03/08 05:59:54;;;;;;;18.80;12.33;;;-1.70;93.80;;;;;;5047066;28;20256;-87
2022/03/08 06:02:21;;;;;;;19.37;12.80;;;-1.80;94.00;;;;;;5031970;28;20679;-85
2022/03/08 06:04:46;;;;;;;19.50;13.30;;;-1.60;94.40;;;;;;5022245;28;20174;-86
2022/03/08 06:07:12;;;;;;;18.40;13.00;;;-1.80;94.20;;;;;;5016764;28;20179;-85
2022/03/08 06:09:38;;;;;;;18.13;12.63;;;-1.30;94.70;;;;;;5020620;28;20223;-87
2022/03/08 06:12:04;;;;;;;19.43;12.20;;;-1.70;94.40;;;;;;5025574;28;20218;-86
2022/03/08 06:14:30;;;;;;;16.83;11.20;;;-1.50;94.30;;;;;;5046864;28;20259;-87
2022/03/08 06:16:56;;;;;;;19.93;12.73;;;-1.20;94.40;;;;;;5040883;28;20191;-86
2022/03/08 06:19:21;;;;;;;14.85;12.45;;;-1.60;94.10;;;;;;5041402;28;20221;-85
2022/03/08 06:21:47;;;;;;;19.73;12.70;;;-1.50;94.40;;;;;;5029258;28;20199;-84
2022/03/08 06:24:13;;;;;;;17.83;12.00;;;-1.30;94.20;;;;;;5030076;28;20190;-86
2022/03/08 06:26:39;;;;;;;18.33;12.30;;;-1.40;93.90;;;;;;5029082;28;20271;-85
2022/03/08 06:29:06;;;;;;;21.05;12.02;;;-1.60;93.60;;;;;;5036915;28;20448;-85
2022/03/08 06:31:32;;;;;;;16.88;12.23;;;-1.50;93.70;;;;;;5026494;28;20211;-86
2022/03/08 06:33:57;;;;;;;18.90;12.00;;;-1.30;93.90;;;;;;5040143;28;20188;-87
2022/03/08 06:36:23;;;;;;;21.90;12.23;;;-1.00;93.90;;;;;;5047420;28;20623;-85
2022/03/08 06:38:48;;;;;;;20.30;12.60;;;-1.40;94.10;;;;;;5041237;28;20635;-85
2022/03/08 06:41:14;;;;;;;17.10;12.47;;;-1.30;94.10;;;;;;5022827;28;20228;-86
2022/03/08 06:43:40;;;;;;;19.10;12.17;;;-1.80;93.70;;;;;;5018333;28;20543;-86
2022/03/08 06:46:06;;;;;;;22.95;12.65;;;-1.20;93.30;;;;;;5031716;28;20514;-86
2022/03/08 06:48:32;;;;;;;20.73;12.77;;;-1.00;94.00;;;;;;5032557;28;20278;-88
2022/03/08 06:50:58;;;;;;;18.45;10.85;;;-1.20;93.80;;;;;;5038203;28;20162;-87
2022/03/08 06:53:23;;;;;;;17.27;11.83;;;-1.50;94.00;;;;;;5024095;28;20186;-90
2022/03/08 06:55:49;;;;;;;18.43;13.10;;;-1.20;94.20;;;;;;5031878;28;20432;-89
2022/03/08 06:58:15;;;;;;;19.03;12.40;;;-1.10;94.50;;;;;;5030844;28;20220;-90
2022/03/08 07:00:40;;;;;;;19.50;12.50;;;-0.10;95.00;;;;;;5043594;28;20202;-88
2022/03/08 07:03:06;;;;;;;17.93;11.60;;;-0.70;94.40;;;;;;5027634;28;20205;-87
2022/03/08 07:05:32;;;;;;;18.37;11.13;;;-1.50;93.80;;;;;;5025203;28;20443;-89
2022/03/08 07:07:57;;;;;;;18.97;12.23;;;-0.40;94.20;;;;;;5024472;28;21374;-89
2022/03/08 07:10:23;;;;;;;23.50;12.70;;;-0.80;94.00;;;;;;5031639;28;20199;-90
2022/03/08 07:12:49;;;;;;;16.60;11.60;;;-0.10;94.40;;;;;;5038127;28;20726;-91
2022/03/08 07:15:14;;;;;;;16.23;10.00;;;-0.40;93.80;;;;;;5037359;28;20193;-87
2022/03/08 07:17:44;;;;;;;17.17;12.00;;;-0.50;93.40;;;;;;5036761;28;20281;-92
2022/03/08 07:20:11;;;;;;;16.42;11.82;;;-0.30;93.50;;;;;;5027842;28;20289;-92
2022/03/08 07:22:36;;;;;;;15.73;11.75;;;0.20;93.50;;;;;;5024576;28;20194;-88
2022/03/08 07:25:02;;;;;;;16.93;10.57;;;-0.20;92.20;;;;;;5043843;28;20192;-88
2022/03/08 07:27:28;;;;;;;17.73;11.10;;;0.30;92.10;;;;;;5034265;28;20178;-90
2022/03/08 07:29:53;;;;;;;15.60;11.20;;;0.60;91.90;;;;;;5028516;28;20615;-87
2022/03/08 07:32:19;;;;;;;14.07;10.77;;;1.20;90.80;;;;;;5031937;28;20742;-90
2022/03/08 07:34:45;;;;;;;16.83;9.77;;;2.10;87.00;;;;;;5029415;28;20691;-88
2022/03/08 07:37:10;;;;;;;13.07;10.10;;;3.60;82.80;;;;;;5031848;28;20530;-92
2022/03/08 07:39:36;;;;;;;13.20;10.27;;;4.70;78.10;;;;;;5028760;28;20300;-87
2022/03/08 07:42:02;;;;;;;12.60;10.30;;;5.30;74.80;;;;;;5028496;28;20217;-85
2022/03/08 07:44:28;;;;;;;13.85;10.95;;;6.30;69.80;;;;;;5038753;28;20519;-81
2022/03/08 07:46:55;;;;;;;14.67;11.20;;;7.40;66.00;;;;;;5048711;28;20802;-90
2022/03/08 07:49:21;;;;;;;12.00;10.75;;;9.20;60.60;;;;;;5035256;28;20181;-87
2022/03/08 07:51:47;;;;;;;13.73;12.13;;;9.20;57.10;;;;;;5038201;28;20590;-85
2022/03/08 07:54:13;;;;;;;12.03;10.83;;;9.20;57.10;;;;;;5031884;28;20884;-90
2022/03/08 07:56:39;;;;;;;13.35;11.05;;;10.30;55.00;;;;;;5025053;28;20763;-84
2022/03/08 07:59:05;;;;;;;12.45;11.15;;;10.50;52.30;;;;;;5029768;28;20235;-90
2022/03/08 08:01:30;;;;;;;10.63;9.53;;;11.70;52.80;;;;;;5031910;28;20201;-91
2022/03/08 08:03:56;;;;;;;8.60;7.80;;;12.20;49.10;;;;;;5029983;28;20184;-90
2022/03/08 08:06:22;;;;;;;10.67;9.40;;;12.00;46.60;;;;;;5034151;28;20229;-92
2022/03/08 08:08:48;;;;;;;9.20;8.40;;;11.30;47.60;;;;;;5030878;28;20192;-94
2022/03/08 08:11:14;;;;;;;9.48;7.72;;;11.10;47.80;;;;;;5031087;28;20458;-87
2022/03/08 08:13:39;;;;;;;9.80;8.20;;;9.50;49.50;;;;;;5022489;28;20190;-90
2022/03/08 08:16:05;;;;;;;8.40;7.10;;;7.80;51.10;;;;;;5027736;28;20193;-89
2022/03/08 08:18:31;;;;;;;11.57;8.33;;;6.90;52.90;;;;;;5028103;28;20919;-84
2022/03/08 08:20:56;;;;;;;8.10;7.23;;;6.40;55.30;;;;;;5045087;28;20982;-90
2022/03/08 08:23:23;;;;;;;10.80;8.50;;;6.20;56.10;;;;;;5024287;28;20287;-89
2022/03/08 08:25:49;;;;;;;9.65;8.65;;;6.00;56.90;;;;;;5031400;28;20728;-90
2022/03/08 08:28:14;;;;;;;9.27;7.97;;;5.70;57.20;;;;;;5016921;28;20272;-89
2022/03/08 08:30:40;;;;;;;7.70;6.90;;;5.90;57.70;;;;;;5028055;28;20672;-90
2022/03/08 08:33:06;;;;;;;10.40;8.43;;;6.50;57.90;;;;;;5029282;28;20549;-91
2022/03/08 08:35:32;;;;;;;9.07;7.67;;;6.60;58.20;;;;;;5021425;28;20654;-88
2022/03/08 08:37:57;;;;;;;10.30;7.73;;;7.60;57.80;;;;;;5033275;28;20193;-87
2022/03/08 08:40:23;;;;;;;10.30;7.67;;;7.70;55.60;;;;;;5025654;28;20817;-85
2022/03/08 08:42:48;;;;;;;8.90;7.80;;;7.50;55.20;;;;;;5025664;28;20731;-88
2022/03/08 08:45:14;;;;;;;8.80;7.30;;;8.00;55.10;;;;;;5025799;28;20205;-84
2022/03/08 08:47:40;;;;;;;8.57;7.50;;;7.60;53.50;;;;;;5047091;28;20546;-90
2022/03/08 08:50:06;;;;;;;7.85;7.05;;;9.50;53.60;;;;;;5025963;28;20189;-89
2022/03/08 08:52:31;;;;;;;8.43;7.63;;;10.00;51.20;;;;;;5032710;28;20406;-89
2022/03/08 08:54:57;;;;;;;8.37;7.57;;;10.90;49.00;;;;;;5033753;28;20202;-86
2022/03/08 08:57:22;;;;;;;10.43;8.43;;;11.50;47.20;;;;;;5024130;28;20186;-85
2022/03/08 08:59:48;;;;;;;7.70;6.93;;;11.70;47.10;;;;;;5030011;28;20219;-86
2022/03/08 09:02:13;;;;;;;7.80;7.00;;;11.20;45.70;;;;;;5033579;28;20476;-87
2022/03/08 09:04:39;;;;;;;8.60;7.40;;;11.80;46.60;;;;;;5033209;28;20185;-86
2022/03/08 09:07:05;;;;;;;8.60;7.10;;;11.80;47.10;;;;;;5030888;28;20396;-86
2022/03/08 09:09:31;;;;;;;7.90;7.10;;;11.70;46.30;;;;;;5012812;28;20189;-88
2022/03/08 09:11:57;;;;;;;7.47;6.75;;;11.00;45.30;;;;;;5025177;28;20309;-88
2022/03/08 09:14:23;;;;;;;7.63;6.70;;;11.20;46.50;;;;;;5035117;28;20272;-85
2022/03/08 09:16:48;;;;;;;7.63;6.90;;;12.10;47.60;;;;;;5031219;28;20189;-82
2022/03/08 09:19:14;;;;;;;8.63;6.37;;;12.00;46.40;;;;;;5048810;28;20213;-88
2022/03/08 09:21:39;;;;;;;7.57;6.70;;;11.60;45.70;;;;;;5030467;28;20262;-89
2022/03/08 09:24:05;;;;;;;7.77;6.97;;;12.00;45.30;;;;;;5028468;28;20190;-88
2022/03/08 09:26:31;;;;;;;7.30;6.70;;;12.60;43.90;;;;;;5039314;28;20272;-90
2022/03/08 09:28:56;;;;;;;8.90;6.90;;;12.70;44.10;;;;;;5027994;28;20276;-87
2022/03/08 09:31:22;;;;;;;7.90;7.20;;;12.80;43.50;;;;;;5032111;28;20455;-88
2022/03/08 09:33:48;;;;;;;6.77;6.07;;;12.30;43.20;;;;;;5037084;28;20682;-95
2022/03/08 09:36:13;;;;;;;10.57;7.03;;;13.10;43.40;;;;;;5023524;28;20186;-87
2022/03/08 09:38:39;;;;;;;8.50;7.73;;;13.20;42.60;;;;;;5026949;28;20251;-85
2022/03/08 09:41:05;;;;;;;7.43;6.73;;;14.40;42.90;;;;;;5039825;28;20602;-90
2022/03/08 09:43:34;;;;;;;10.90;7.05;;;14.90;41.10;;;;;;5025912;28;20183;-86
2022/03/08 09:46:00;;;;;;;6.70;6.00;;;15.30;40.80;;;;;;5048110;28;20261;-89
2022/03/08 09:48:25;;;;;;;6.97;6.30;;;14.50;39.90;;;;;;5033615;28;20265;-89
2022/03/08 09:50:51;;;;;;;7.07;6.47;;;13.60;40.20;;;;;;5023225;28;20186;-86
2022/03/08 09:53:17;;;;;;;7.63;6.93;;;13.90;40.10;;;;;;5027381;28;20704;-84
2022/03/08 09:55:43;;;;;;;7.10;6.50;;;14.60;40.00;;;;;;5047120;28;20191;-84
2022/03/08 09:58:09;;;;;;;7.17;6.50;;;14.90;39.00;;;;;;5041512;28;20174;-83
2022/03/08 10:00:35;;;;;;;7.33;6.60;;;14.50;38.40;;;;;;5040572;28;20649;-84
2022/03/08 10:03:01;;;;;;;7.07;6.47;;;14.40;38.70;;;;;;5023246;28;20244;-83
2022/03/08 10:05:37;;;;;;;7.10;6.50;;;15.00;37.90;;;;;;5044495;28;20713;-83
2022/03/08 10:08:21;;;;;;;6.53;6.03;;;15.00;37.20;;;;;;5015842;28;20536;-84
2022/03/08 10:10:58;;;;;;;7.85;5.78;;;15.60;37.10;;;;;;5048910;28;20181;-83
2022/03/08 10:13:31;;;;;;;6.80;6.10;;;15.10;35.80;;;;;;5032438;28;20716;-83
2022/03/08 10:16:04;;;;;;;7.80;6.38;;;15.00;37.00;;;;;;5043080;28;20792;-84
2022/03/08 10:18:34;;;;;;;6.90;6.30;;;14.80;35.70;;;;;;5023634;28;20649;-85
2022/03/08 10:21:00;;;;;;;8.52;6.63;;;14.50;35.80;;;;;;5047985;28;20211;-82
2022/03/08 10:23:25;;;;;;;6.60;5.90;;;14.90;37.60;;;;;;5022743;28;20273;-83
2022/03/08 10:25:51;;;;;;;7.00;6.13;;;15.20;36.20;;;;;;5024636;28;20617;-85
2022/03/08 10:28:16;;;;;;;7.33;6.67;;;15.10;35.50;;;;;;5039360;28;20236;-84
2022/03/08 10:30:45;;;;;;;7.10;6.40;;;14.10;36.50;;;;;;5026527;28;20189;-83
2022/03/08 10:33:12;;;;;;;8.98;6.30;;;13.90;36.90;;;;;;5036072;28;20186;-83
2022/03/08 10:35:42;;;;;;;6.50;5.80;;;13.80;37.20;;;;;;5035820;28;20189;-84
2022/03/08 10:38:13;;;;;;;6.80;6.10;;;12.70;36.80;;;;;;5048044;28;20206;-83
2022/03/08 10:40:40;;;;;;;7.45;6.78;;;12.00;37.60;;;;;;5041689;28;20255;-83
2022/03/08 10:43:08;;;;;;;6.93;6.10;;;11.20;38.60;;;;;;5031428;28;20221;-83
2022/03/08 10:45:36;;;;;;;8.07;5.60;;;11.50;40.10;;;;;;5032963;28;20283;-84
2022/03/08 10:48:07;;;;;;;7.28;5.70;;;11.80;38.50;;;;;;5021567;28;20185;-83
2022/03/08 10:50:34;;;;;;;5.45;4.95;;;12.30;37.20;;;;;;5030412;28;20196;-83
2022/03/08 10:53:02;;;;;;;5.72;5.22;;;12.20;36.80;;;;;;5030524;28;20232;-84
2022/03/08 10:55:29;;;;;;;5.90;5.30;;;12.30;37.10;;;;;;5031598;28;20559;-84
2022/03/08 10:57:57;;;;;;;6.25;5.65;;;12.90;36.80;;;;;;5024268;28;20252;-84
2022/03/08 11:00:31;;;;;;;6.85;6.15;;;12.80;36.50;;;;;;5027646;28;20248;-84
2022/03/08 11:03:01;;;;;;;7.78;5.80;;;12.90;36.60;;;;;;5031125;28;20196;-83
2022/03/08 11:05:35;;;;;;;7.03;6.38;;;12.40;37.10;;;;;;5035316;28;20557;-85
2022/03/08 11:08:01;;;;;;;6.50;5.90;;;12.90;36.80;;;;;;5016545;28;20265;-84
2022/03/08 11:10:28;;;;;;;6.10;5.50;;;12.50;36.00;;;;;;5028137;28;20182;-84
2022/03/08 11:12:56;;;;;;;7.38;5.50;;;13.60;36.40;;;;;;5036736;28;20292;-84
2022/03/08 11:15:23;;;;;;;6.00;5.40;;;13.60;35.50;;;;;;5038641;28;20221;-83
2022/03/08 11:17:52;;;;;;;5.75;5.15;;;14.50;34.60;;;;;;5041198;28;20186;-84
2022/03/08 11:20:19;;;;;;;5.35;4.70;;;14.70;33.90;;;;;;5019544;28;20562;-84
2022/03/08 11:22:47;;;;;;;6.45;5.85;;;14.30;32.50;;;;;;5031634;28;20277;-83
2022/03/08 11:25:16;;;;;;;6.18;5.57;;;14.40;33.20;;;;;;5036672;28;20216;-83
2022/03/08 11:27:44;;;;;;;6.85;5.80;;;14.40;33.80;;;;;;5037250;28;20257;-85
2022/03/08 11:30:17;;;;;;;6.25;5.63;;;14.90;33.80;;;;;;5032132;28;20264;-85
2022/03/08 11:32:52;;;;;;;5.90;5.38;;;14.20;33.90;;;;;;5027306;28;20690;-84
2022/03/08 11:35:33;;;;;;;6.05;5.45;;;13.20;34.30;;;;;;5032594;28;20427;-85
2022/03/08 11:37:59;;;;;;;4.90;4.50;;;13.20;34.20;;;;;;5041740;28;20432;-83
2022/03/08 11:40:25;;;;;;;6.20;5.30;;;13.60;34.10;;;;;;5040245;28;20236;-84
2022/03/08 11:42:53;;;;;;;6.47;5.17;;;13.70;34.20;;;;;;5021189;28;20279;-86
2022/03/08 11:45:27;;;;;;;5.78;5.28;;;14.00;34.80;;;;;;5040065;28;20444;-90
2022/03/08 11:47:59;;;;;;;5.50;4.85;;;12.80;33.80;;;;;;5034918;28;20173;-89
2022/03/08 11:50:28;;;;;;;5.70;5.18;;;12.50;34.50;;;;;;5043446;28;20276;-86
2022/03/08 11:53:16;;;;;;;6.25;5.20;;;12.80;35.50;;;;;;5022965;28;20314;-87
2022/03/08 11:55:46;;;;;;;11.27;5.20;;;11.90;35.20;;;;;;5038587;28;20192;-87
2022/03/08 11:58:19;;;;;;;5.43;4.93;;;11.80;35.80;;;;;;5016636;28;20189;-90
2022/03/08 12:00:55;;;;;;;6.00;5.40;;;12.50;35.80;;;;;;5035005;28;20231;-90
2022/03/08 12:03:23;;;;;;;5.65;5.15;;;12.20;36.40;;;;;;5044015;28;20192;-89
2022/03/08 12:06:00;;;;;;;7.55;5.60;;;12.50;35.80;;;;;;5023099;28;20185;-90
2022/03/08 12:08:29;;;;;;;6.18;5.57;;;12.70;35.50;;;;;;5029750;28;20173;-89
2022/03/08 12:11:00;;;;;;;6.55;5.43;;;12.60;35.30;;;;;;5029900;28;20189;-89
2022/03/08 12:13:35;;;;;;;7.20;6.50;;;12.30;34.40;;;;;;5022368;28;20181;-92
2022/03/08 12:16:10;;;;;;;6.40;5.80;;;12.60;35.30;;;;;;5027878;28;20174;-86
2022/03/08 12:18:40;;;;;;;6.60;5.18;;;12.10;35.40;;;;;;5025722;28;20208;-92
2022/03/08 12:21:19;;;;;;;6.00;5.50;;;12.30;35.90;;;;;;5029906;28;20286;-93
2022/03/08 12:23:51;;;;;;;6.60;5.95;;;12.50;36.20;;;;;;5027127;28;20190;-89
2022/03/08 12:26:38;;;;;;;7.45;6.13;;;13.80;36.80;;;;;;5033740;28;20312;-82
2022/03/08 12:29:04;;;;;;;6.38;5.78;;;11.70;35.70;;;;;;5022196;28;20188;-86
2022/03/08 12:31:30;;;;;;;6.97;6.28;;;11.30;35.90;;;;;;5029309;28;20640;-86
2022/03/08 12:34:00;;;;;;;6.43;5.93;;;11.70;37.10;;;;;;5042858;28;20188;-85